Time;durP1;ratioP1;P1;durP2;ratioP2;P2;SDS_P1;SDS_P2;PMS_P1;PMS_P2;Temp;Humidity;BMP_temperature;BMP_pressure;BME280_temperature;BME280_humidity;BME280_pressure;Samples;Min_cycle;Max_cycle;Signal;HPM_P1;HPM_P2
2023/05/02 00:01:16;;;;;;;33.75;21.95;;;;;;;12.60;100.00;151166.88;5019326;28;20069;-90
2023/05/02 00:03:42;;;;;;;33.80;22.05;;;;;;;12.51;100.00;151144.38;5018266;28;20507;-88
2023/05/02 00:06:08;;;;;;;31.40;20.70;;;;;;;12.55;100.00;151154.38;5018317;28;20454;-89
2023/05/02 00:08:33;;;;;;;31.20;20.60;;;;;;;12.66;100.00;151181.91;5018401;28;20034;-88
2023/05/02 00:10:59;;;;;;;30.52;20.65;;;;;;;12.70;100.00;151191.91;5018232;28;20038;-88
2023/05/02 00:13:28;;;;;;;30.75;19.20;;;;;;;12.71;100.00;151194.44;5017165;28;20037;-88
2023/05/02 00:15:53;;;;;;;30.75;19.95;;;;;;;12.77;100.00;151209.44;5018195;28;20140;-89
2023/05/02 00:18:19;;;;;;;27.75;19.85;;;;;;;12.61;100.00;151169.41;5017693;28;20057;-89
2023/05/02 00:20:44;;;;;;;28.15;19.98;;;;;;;12.58;100.00;151161.91;5017734;28;20037;-87
2023/05/02 00:23:12;;;;;;;28.08;19.95;;;;;;;12.54;100.00;151151.88;5017604;28;20052;-87
2023/05/02 00:25:45;;;;;;;31.15;20.40;;;;;;;12.48;100.00;151135.59;4999583;28;20049;-89
2023/05/02 00:28:12;;;;;;;33.50;20.77;;;;;;;12.58;100.00;151161.91;5014282;28;20030;-90
2023/05/02 00:30:45;;;;;;;28.83;21.05;;;;;;;12.43;100.00;151124.31;5015581;28;20041;-88
2023/05/02 00:33:13;;;;;;;29.70;19.58;;;;;;;12.42;100.00;151123.13;5015872;28;20092;-89
2023/05/02 00:35:39;;;;;;;31.40;21.33;;;;;;;12.46;100.00;151131.88;4997871;28;20018;-91
2023/05/02 00:38:05;;;;;;;35.47;21.77;;;;;;;12.44;100.00;151126.84;5015002;28;20101;-88
2023/05/02 00:40:49;;;;;;;32.08;21.13;;;;;;;12.30;100.00;151093.06;5015198;28;20061;-88
2023/05/02 00:43:16;;;;;;;33.20;21.60;;;;;;;12.33;100.00;151099.28;5029339;28;20044;-91
2023/05/02 00:45:44;;;;;;;35.28;21.80;;;;;;;12.30;100.00;151091.78;5025009;28;20452;-90
2023/05/02 00:48:10;;;;;;;33.47;21.70;;;;;;;12.31;100.00;151094.31;5015993;28;20018;-88
2023/05/02 00:50:41;;;;;;;31.85;21.08;;;;;;;12.42;100.00;151123.13;5015458;28;20042;-89
2023/05/02 00:53:07;;;;;;;36.05;22.85;;;;;;;12.40;100.00;151118.06;5013882;28;20073;-87
2023/05/02 00:55:33;;;;;;;34.75;21.98;;;;;;;12.42;100.00;151121.84;5014531;28;20062;-87
2023/05/02 00:58:02;;;;;;;31.48;21.23;;;;;;;12.41;100.00;151119.34;5015234;28;20061;-88
2023/05/02 01:00:52;;;;;;;30.55;20.95;;;;;;;12.62;100.00;151171.91;5014386;28;20056;-89
2023/05/02 01:04:03;;;;;;;32.55;20.95;;;;;;;12.60;100.00;151166.88;4998043;28;20068;-91
2023/05/02 01:06:41;;;;;;;29.70;20.75;;;;;;;12.61;100.00;151169.41;4988894;28;20053;-90
2023/05/02 01:09:37;;;;;;;30.98;21.17;;;;;;;12.59;100.00;151164.41;4997540;28;20042;-89
2023/05/02 01:12:22;;;;;;;30.95;21.45;;;;;;;12.51;100.00;151144.38;5014606;28;20042;-90
2023/05/02 01:14:54;;;;;;;32.25;21.20;;;;;;;12.60;100.00;151166.88;5014216;28;20084;-89
2023/05/02 01:17:23;;;;;;;33.78;21.38;;;;;;;12.58;100.00;151160.63;4997998;28;20526;-91
2023/05/02 01:19:55;;;;;;;29.95;21.05;;;;;;;12.69;100.00;151188.19;5014814;28;20384;-91
2023/05/02 01:22:23;;;;;;;22.95;14.65;;;;;;;12.72;100.00;151196.94;5014919;28;20060;-89
2023/05/02 01:25:13;;;;;;;33.80;21.48;;;;;;;12.62;100.00;151171.91;5015168;28;20467;-92
2023/05/02 01:27:55;;;;;;;30.70;20.73;;;;;;;12.68;100.00;151185.66;5014759;28;20034;-87
2023/05/02 01:30:23;;;;;;;31.85;19.60;;;;;;;12.63;100.00;151174.38;4997417;28;20065;-89
2023/05/02 01:32:51;;;;;;;33.95;20.90;;;;;;;12.69;100.00;151188.19;5015041;28;20511;-87
2023/05/02 01:35:19;;;;;;;32.20;20.88;;;;;;;12.50;100.00;151140.59;5015086;28;20188;-91
2023/05/02 01:37:46;;;;;;;28.15;20.80;;;;;;;12.61;100.00;151169.41;5013323;28;20399;-90
2023/05/02 01:40:16;;;;;;;31.77;20.75;;;;;;;12.52;100.00;151146.88;4997265;28;20124;-89
2023/05/02 01:42:44;;;;;;;34.13;22.35;;;;;;;12.40;100.00;151118.06;5014419;28;20495;-91
2023/05/02 01:45:13;;;;;;;28.67;20.08;;;;;;;12.29;100.00;151090.59;5012977;28;20038;-90
2023/05/02 01:47:40;;;;;;;28.17;20.02;;;;;;;12.30;100.00;151091.78;5018231;28;20037;-88
2023/05/02 01:50:10;;;;;;;30.67;21.52;;;;;;;12.27;100.00;151084.28;5025057;28;20093;-88
2023/05/02 01:52:37;;;;;;;32.40;22.55;;;;;;;12.28;100.00;151086.81;5024515;28;20141;-85
2023/05/02 01:55:07;;;;;;;30.58;21.65;;;;;;;12.32;100.00;151098.09;5031448;28;20117;-89
2023/05/02 01:57:35;;;;;;;31.08;21.50;;;;;;;12.52;100.00;151146.88;5032461;28;20037;-89
2023/05/02 02:00:03;;;;;;;30.25;20.73;;;;;;;12.49;100.00;151139.38;5027586;28;20128;-90
2023/05/02 02:02:50;;;;;;;30.75;21.45;;;;;;;12.43;100.00;151124.31;5014862;28;20038;-90
2023/05/02 02:05:18;;;;;;;33.17;22.08;;;;;;;12.37;100.00;151110.56;5015169;28;20038;-86
2023/05/02 02:07:45;;;;;;;35.10;23.38;;;;;;;12.33;100.00;151099.28;5015151;28;20034;-90
2023/05/02 02:10:11;;;;;;;31.20;21.08;;;;;;;12.37;100.00;151109.31;5013576;28;20041;-91
2023/05/02 02:13:06;;;;;;;30.23;21.25;;;;;;;12.31;100.00;151095.56;5015696;28;20034;-91
2023/05/02 02:15:38;;;;;;;33.30;21.83;;;;;;;12.34;100.00;151101.81;5016504;28;20081;-89
2023/05/02 02:18:10;;;;;;;34.88;23.35;;;;;;;12.27;100.00;151084.28;5019020;28;20501;-91
2023/05/02 02:20:37;;;;;;;36.17;24.30;;;;;;;12.16;100.00;151056.78;5020048;28;20018;-89
2023/05/02 02:23:07;;;;;;;37.33;23.13;;;;;;;12.16;100.00;151056.78;5017707;28;20026;-90
2023/05/02 02:25:34;;;;;;;37.17;24.08;;;;;;;12.16;100.00;151058.06;5019157;28;20064;-87
2023/05/02 02:28:00;;;;;;;42.45;24.13;;;;;;;12.20;100.00;151066.75;5019191;28;20075;-91
2023/05/02 02:30:27;;;;;;;36.08;22.80;;;;;;;12.20;100.00;151066.75;5017746;28;20471;-88
2023/05/02 02:33:32;;;;;;;37.17;23.08;;;;;;;12.20;100.00;151066.75;5019423;28;20029;-87
2023/05/02 02:36:10;;;;;;;37.42;23.40;;;;;;;12.03;100.00;151025.47;5003254;28;20133;-88
2023/05/02 02:38:49;;;;;;;39.10;25.13;;;;;;;11.99;100.00;151015.50;5016773;28;20077;-92
2023/05/02 02:41:35;;;;;;;39.85;24.67;;;;;;;12.06;100.00;151031.78;5016477;28;20065;-90
2023/05/02 02:44:39;;;;;;;42.05;24.25;;;;;;;12.12;100.00;151046.78;5016226;28;20045;-90
2023/05/02 02:47:22;;;;;;;40.00;24.40;;;;;;;12.04;100.00;151028.00;4976772;28;20042;-89
2023/05/02 02:50:14;;;;;;;38.50;23.85;;;;;;;11.96;100.00;151006.75;4960111;28;20035;-90
2023/05/02 02:53:01;;;;;;;36.55;24.30;;;;;;;11.95;100.00;151004.22;4959097;28;20054;-89
2023/05/02 02:55:54;;;;;;;36.95;23.48;;;;;;;11.85;100.00;150980.47;4960159;28;20126;-87
2023/05/02 02:58:25;;;;;;;39.20;23.38;;;;;;;11.85;100.00;150981.72;5008931;28;20053;-87
2023/05/02 03:00:52;;;;;;;33.83;22.90;;;;;;;11.81;100.00;150971.72;4999037;28;20460;-87
2023/05/02 03:03:21;;;;;;;35.97;22.95;;;;;;;11.80;100.00;150967.94;4999489;28;20109;-86
2023/05/02 03:05:47;;;;;;;35.55;22.65;;;;;;;11.75;100.00;150955.47;5016037;28;20495;-88
2023/05/02 03:08:14;;;;;;;36.50;23.10;;;;;;;11.79;100.00;150966.72;4999873;28;20040;-91
2023/05/02 03:10:40;;;;;;;37.58;24.08;;;;;;;11.78;100.00;150962.94;4999252;28;20420;-89
2023/05/02 03:13:05;;;;;;;34.60;22.67;;;;;;;11.81;100.00;150971.72;5008284;28;20049;-94
2023/05/02 03:15:50;;;;;;;36.13;24.00;;;;;;;11.77;100.00;150960.44;5016531;28;20042;-87
2023/05/02 03:18:21;;;;;;;33.53;22.92;;;;;;;11.86;100.00;150983.00;5017002;28;20041;-90
2023/05/02 03:20:47;;;;;;;35.85;22.67;;;;;;;11.88;100.00;150989.22;5017431;28;20092;-91
2023/05/02 03:23:12;;;;;;;36.35;23.38;;;;;;;11.87;100.00;150985.47;5017760;28;20029;-90
2023/05/02 03:25:38;;;;;;;30.45;20.60;;;;;;;11.97;100.00;151009.22;5016858;28;20038;-87
2023/05/02 03:28:07;;;;;;;31.75;21.30;;;;;;;11.93;100.00;150999.25;5017088;28;20041;-88
2023/05/02 03:30:34;;;;;;;37.38;21.15;;;;;;;11.85;100.00;150981.72;5016413;28;20034;-89
2023/05/02 03:33:00;;;;;;;29.98;20.35;;;;;;;11.87;100.00;150986.72;5017026;28;20038;-90
2023/05/02 03:35:25;;;;;;;34.20;20.67;;;;;;;11.86;100.00;150984.19;5018625;28;20092;-88
2023/05/02 03:37:52;;;;;;;32.70;19.80;;;;;;;11.88;100.00;150987.97;5001342;28;20221;-89
2023/05/02 03:40:20;;;;;;;30.77;19.50;;;;;;;11.81;100.00;150971.72;5018777;28;20542;-91
2023/05/02 03:42:46;;;;;;;30.25;20.73;;;;;;;11.81;100.00;150970.44;5001537;28;20152;-91
2023/05/02 03:45:21;;;;;;;33.42;19.33;;;;;;;11.85;100.00;150980.47;5038025;28;20049;-87
2023/05/02 03:47:49;;;;;;;32.97;20.13;;;;;;;11.82;100.00;150974.22;5022571;28;20041;-89
2023/05/02 03:50:14;;;;;;;31.60;20.30;;;;;;;11.84;100.00;150979.22;5038968;28;20036;-88
2023/05/02 03:52:42;;;;;;;30.77;20.38;;;;;;;11.86;100.00;150984.19;5038610;28;20042;-89
2023/05/02 03:55:09;;;;;;;32.50;20.10;;;;;;;11.89;100.00;150991.75;5038220;28;20062;-90
2023/05/02 03:57:34;;;;;;;35.45;20.08;;;;;;;11.80;100.00;150969.19;5033116;28;20032;-88
2023/05/02 04:00:06;;;;;;;33.63;19.38;;;;;;;11.81;100.00;150971.72;5030163;28;20061;-89
2023/05/02 04:02:38;;;;;;;31.25;20.27;;;;;;;11.95;100.00;151005.50;5030447;28;20038;-88
2023/05/02 04:05:10;;;;;;;34.13;20.60;;;;;;;11.80;100.00;150969.19;5018745;28;20518;-91
2023/05/02 04:07:37;;;;;;;30.83;19.95;;;;;;;11.76;100.00;150959.22;5021033;28;20101;-89
2023/05/02 04:10:06;;;;;;;29.90;18.63;;;;;;;11.77;100.00;150961.69;5025261;28;20487;-89
2023/05/02 04:12:36;;;;;;;35.38;17.77;;;;;;;11.74;100.00;150952.94;5023872;28;20036;-88
2023/05/02 04:15:03;;;;;;;30.13;19.48;;;;;;;11.66;100.00;150934.16;5023532;28;20034;-88
2023/05/02 04:17:29;;;;;;;31.08;19.38;;;;;;;11.75;100.00;150956.72;5003382;28;20104;-85
2023/05/02 04:19:55;;;;;;;30.77;18.42;;;;;;;11.75;100.00;150956.72;5012336;28;20026;-84
2023/05/02 04:22:23;;;;;;;29.33;19.23;;;;;;;11.69;100.00;150940.41;5005901;28;20478;-86
2023/05/02 04:24:53;;;;;;;30.52;18.67;;;;;;;11.78;100.00;150962.94;5004203;28;20053;-85
2023/05/02 04:27:19;;;;;;;26.30;18.17;;;;;;;11.73;100.00;150951.69;5002413;28;20549;-84
2023/05/02 04:29:49;;;;;;;30.00;18.95;;;;;;;11.67;100.00;150935.38;5013283;28;20033;-86
2023/05/02 04:32:15;;;;;;;28.92;17.85;;;;;;;11.69;100.00;150941.66;5013445;28;20033;-89
2023/05/02 04:34:41;;;;;;;27.85;17.38;;;;;;;11.69;100.00;150940.41;5006429;28;20095;-89
2023/05/02 04:37:08;;;;;;;27.50;17.05;;;;;;;11.60;100.00;150919.13;5005784;28;20109;-89
2023/05/02 04:39:34;;;;;;;27.13;16.25;;;;;;;11.68;100.00;150937.88;5017089;28;20037;-87
2023/05/02 04:42:05;;;;;;;25.35;16.52;;;;;;;11.62;100.00;150924.16;5019995;28;20080;-91
2023/05/02 04:44:36;;;;;;;27.83;16.23;;;;;;;11.64;100.00;150929.13;5126076;23;20042;-87
2023/05/02 04:47:03;;;;;;;24.60;15.45;;;;;;;11.75;100.00;150956.72;5021817;28;20031;-87
2023/05/02 04:49:30;;;;;;;23.73;15.45;;;;;;;11.76;100.00;150959.22;5017624;28;20027;-93
2023/05/02 04:51:59;;;;;;;24.80;16.17;;;;;;;11.71;100.00;150946.69;5020456;28;20089;-89
2023/05/02 04:54:24;;;;;;;24.38;15.35;;;;;;;11.75;100.00;150956.72;5027724;28;20125;-88
2023/05/02 04:56:53;;;;;;;22.92;14.20;;;;;;;11.89;100.00;150991.75;5013951;28;20132;-90
2023/05/02 04:59:20;;;;;;;25.05;15.60;;;;;;;11.75;100.00;150956.72;5002644;28;20073;-88
2023/05/02 05:01:47;;;;;;;28.15;15.85;;;;;;;11.78;100.00;150964.22;5002275;28;20030;-90
2023/05/02 05:04:13;;;;;;;24.25;15.10;;;;;;;11.75;100.00;150956.72;4999264;28;20038;-86
2023/05/02 05:06:40;;;;;;;25.77;16.15;;;;;;;11.67;100.00;150935.38;4995944;28;20064;-88
2023/05/02 05:09:06;;;;;;;25.10;15.38;;;;;;;11.71;100.00;150945.44;4994556;28;20038;-87
2023/05/02 05:11:34;;;;;;;25.98;15.93;;;;;;;11.73;100.00;150951.69;4994454;28;20077;-90
2023/05/02 05:14:02;;;;;;;24.15;14.43;;;;;;;11.77;100.00;150961.69;4995747;28;20038;-85
2023/05/02 05:16:29;;;;;;;21.40;14.77;;;;;;;11.79;100.00;150966.72;4999971;28;20053;-91
2023/05/02 05:19:03;;;;;;;27.90;14.45;;;;;;;11.78;100.00;150964.22;4996880;28;20038;-88
2023/05/02 05:21:29;;;;;;;23.20;14.88;;;;;;;11.86;100.00;150983.00;4997880;28;20065;-89
2023/05/02 05:24:05;;;;;;;25.23;15.00;;;;;;;11.76;100.00;150957.97;5004629;28;20034;-86
2023/05/02 05:26:36;;;;;;;24.23;15.50;;;;;;;11.77;100.00;150960.44;5016692;28;20083;-89
2023/05/02 05:29:03;;;;;;;24.15;15.75;;;;;;;11.72;100.00;150949.22;5118849;23;20053;-89
2023/05/02 05:31:35;;;;;;;27.20;15.48;;;;;;;11.67;100.00;150936.63;5022299;28;20038;-90
2023/05/02 05:34:05;;;;;;;26.17;16.23;;;;;;;11.69;100.00;150941.66;5015562;28;20602;-88
2023/05/02 05:36:35;;;;;;;24.27;16.02;;;;;;;11.60;100.00;150919.13;5005890;28;20042;-92
2023/05/02 05:39:05;;;;;;;26.48;16.10;;;;;;;11.59;100.00;150915.41;5021678;28;20054;-88
2023/05/02 05:41:37;;;;;;;25.10;14.27;;;;;;;11.66;100.00;150934.16;5024324;28;20069;-90
2023/05/02 05:44:06;;;;;;;25.55;15.68;;;;;;;11.66;100.00;150934.16;5002061;28;20046;-88
2023/05/02 05:46:32;;;;;;;20.67;14.00;;;;;;;11.61;100.00;150921.63;4988202;28;20065;-87
2023/05/02 05:49:05;;;;;;;21.38;14.15;;;;;;;11.61;100.00;150921.63;5005703;28;20034;-89
2023/05/02 05:51:43;;;;;;;24.17;15.93;;;;;;;11.63;100.00;150926.66;5010834;28;20075;-92
2023/05/02 05:54:20;;;;;;;24.55;15.45;;;;;;;11.67;100.00;150936.63;4986766;28;20142;-92
2023/05/02 05:57:06;;;;;;;26.25;16.20;;;;;;;11.84;100.00;150977.97;4980354;28;20552;-88
2023/05/02 05:59:35;;;;;;;23.58;14.88;;;;;;;11.98;100.00;151011.75;5018788;28;20105;-89
2023/05/02 06:05:04;;;;;;;28.08;15.27;;;;;;;12.01;100.00;151020.50;5019541;28;20080;-89
2023/05/02 06:07:31;;;;;;;24.98;14.73;;;;;;;12.04;100.00;151026.75;5017287;28;20038;-91
2023/05/02 06:10:03;;;;;;;25.83;15.65;;;;;;;11.95;100.00;151004.22;5013606;28;20037;-92
2023/05/02 06:12:30;;;;;;;25.63;15.95;;;;;;;11.89;100.00;150991.75;5029311;28;20557;-91
2023/05/02 06:14:57;;;;;;;28.45;15.88;;;;;;;11.84;100.00;150977.97;5011217;28;20065;-88
2023/05/02 06:17:23;;;;;;;25.35;15.30;;;;;;;11.79;100.00;150965.47;5010120;28;20073;-88
2023/05/02 06:19:49;;;;;;;25.40;15.60;;;;;;;11.85;100.00;150980.47;5005005;28;20034;-90
2023/05/02 06:22:15;;;;;;;28.30;16.33;;;;;;;11.80;100.00;150969.19;5011942;28;20025;-88
2023/05/02 06:24:43;;;;;;;25.63;15.70;;;;;;;11.83;100.00;150975.50;5031195;28;20026;-87
2023/05/02 06:27:11;;;;;;;26.83;16.48;;;;;;;11.96;100.00;151006.75;5018388;28;20043;-90
2023/05/02 06:29:44;;;;;;;24.30;16.30;;;;;;;11.90;100.00;150994.22;5008862;28;20027;-90
2023/05/02 06:32:09;;;;;;;23.93;15.73;;;;;;;11.85;100.00;150981.72;5007955;28;20096;-89
2023/05/02 06:34:35;;;;;;;22.98;14.13;;;;;;;11.93;100.00;151000.50;5020548;28;20050;-89
2023/05/02 06:37:01;;;;;;;21.30;14.68;;;;;;;11.90;100.00;150992.97;5006172;28;20096;-89
2023/05/02 06:39:26;;;;;;;22.17;13.68;;;;;;;12.04;100.00;151026.75;4990033;28;20077;-90
2023/05/02 06:42:03;;;;;;;22.00;14.43;;;;;;;12.10;100.00;151041.75;5002114;28;20031;-89
2023/05/02 06:44:31;;;;;;;21.77;14.65;;;;;;;12.17;100.00;151059.25;5002818;28;20141;-88
2023/05/02 06:46:56;;;;;;;21.75;14.38;;;;;;;12.19;100.00;151064.31;5000623;28;20499;-87
2023/05/02 06:49:25;;;;;;;25.13;15.85;;;;;;;12.12;100.00;151046.78;5000599;28;20045;-85
2023/05/02 06:51:54;;;;;;;27.10;16.15;;;;;;;12.10;100.00;151041.75;5002587;28;20034;-87
2023/05/02 06:54:20;;;;;;;25.70;16.15;;;;;;;12.18;100.00;151061.78;4999205;28;20026;-86
2023/05/02 06:56:46;;;;;;;24.73;15.18;;;;;;;12.38;100.00;151111.84;4997301;28;20038;-87
2023/05/02 06:59:12;;;;;;;24.85;14.18;;;;;;;12.49;100.00;151138.13;4997857;28;20069;-86
2023/05/02 07:01:37;;;;;;;19.35;14.00;;;;;;;12.49;100.00;151139.38;4995392;28;20038;-88
2023/05/02 07:04:04;;;;;;;19.98;14.32;;;;;;;12.41;100.00;151119.34;4997966;28;20070;-86
2023/05/02 07:06:31;;;;;;;20.55;13.55;;;;;;;12.55;100.00;151153.13;4981245;28;20038;-87
2023/05/02 07:08:56;;;;;;;19.23;13.18;;;;;;;12.54;100.00;151151.88;4999772;28;20551;-89
2023/05/02 07:11:26;;;;;;;16.27;12.15;;;;;;;12.51;100.00;151144.38;5004506;28;20084;-89
2023/05/02 07:13:52;;;;;;;18.90;12.88;;;;;;;12.54;100.00;151151.88;5001938;28;20048;-88
2023/05/02 07:16:18;;;;;;;19.10;12.63;;;;;;;12.64;100.00;151175.66;4999639;28;20375;-89
2023/05/02 07:18:47;;;;;;;20.13;13.02;;;;;;;12.76;100.00;151206.94;5001492;28;20113;-87
2023/05/02 07:21:13;;;;;;;16.80;12.05;;;;;;;12.75;100.00;151204.47;5002213;28;20038;-90
2023/05/02 07:23:38;;;;;;;18.17;12.40;;;;;;;12.90;100.00;151242.00;5001414;28;20065;-90
2023/05/02 07:26:04;;;;;;;17.83;12.32;;;;;;;13.09;100.00;151288.34;5001885;28;20042;-90
2023/05/02 07:28:30;;;;;;;19.05;11.00;;;;;;;13.29;100.00;151337.22;5004299;28;20056;-87
2023/05/02 07:30:56;;;;;;;16.27;10.88;;;;;;;13.32;100.00;151344.72;5004466;28;20026;-90
2023/05/02 07:33:22;;;;;;;13.65;9.95;;;;;;;13.36;100.00;151355.97;5003654;28;20049;-87
2023/05/02 07:35:51;;;;;;;15.52;9.48;;;;;;;13.48;100.00;151384.78;4988076;28;20046;-89
2023/05/02 07:38:16;;;;;;;12.02;9.10;;;;;;;13.46;100.00;151381.00;4999095;28;20049;-89
2023/05/02 07:40:42;;;;;;;15.02;8.63;;;;;;;13.46;100.00;151379.75;4986796;28;20035;-89
2023/05/02 07:43:11;;;;;;;19.08;8.10;;;;;;;13.51;100.00;151392.28;5003354;28;20019;-89
2023/05/02 07:45:37;;;;;;;11.50;8.77;;;;;;;13.58;100.00;151409.84;4985807;28;20039;-88
2023/05/02 07:48:02;;;;;;;14.25;8.55;;;;;;;13.46;100.00;151381.00;4949664;28;20127;-86
2023/05/02 07:50:28;;;;;;;10.07;7.78;;;;;;;13.37;100.00;151357.22;5001872;28;20042;-90
2023/05/02 07:52:56;;;;;;;10.75;6.75;;;;;;;13.43;100.00;151373.50;5005966;28;20089;-87
2023/05/02 07:55:21;;;;;;;9.25;6.85;;;;;;;13.40;100.00;151364.72;4998091;28;20122;-88
2023/05/02 07:57:47;;;;;;;13.02;6.72;;;;;;;13.30;100.00;151339.69;4977524;28;20473;-88
2023/05/02 08:00:13;;;;;;;8.30;6.30;;;;;;;13.55;100.00;151402.31;4990105;28;20038;-88
2023/05/02 08:02:40;;;;;;;8.73;6.05;;;;;;;13.61;100.00;151417.34;4982324;28;20043;-86
2023/05/02 08:05:06;;;;;;;9.38;6.75;;;;;;;13.44;100.00;151374.75;4995428;28;20058;-89
2023/05/02 08:07:34;;;;;;;9.40;7.05;;;;;;;13.49;100.00;151386.03;4999324;28;20113;-88
2023/05/02 08:10:00;;;;;;;12.15;7.03;;;;;;;13.62;100.00;151419.81;4998118;28;20504;-89
2023/05/02 08:12:26;;;;;;;9.40;6.63;;;;;;;13.74;100.00;151448.66;4996185;28;20142;-87
2023/05/02 08:14:52;;;;;;;10.55;6.13;;;;;;;13.65;100.00;151427.38;4997753;28;20500;-89
2023/05/02 08:17:18;;;;;;;10.90;6.45;;;;;;;13.60;100.00;151414.81;4982297;28;20038;-87
2023/05/02 08:19:43;;;;;;;9.65;5.82;;;;;;;13.89;100.00;151487.47;4996237;28;20074;-88
2023/05/02 08:22:09;;;;;;;7.07;5.72;;;;;;;13.91;100.00;151492.50;4997831;28;20488;-87
2023/05/02 08:24:34;;;;;;;9.25;6.18;;;;;;;13.94;100.00;151498.75;4997087;28;20027;-86
2023/05/02 08:27:02;;;;;;;8.85;5.88;;;;;;;13.94;100.00;151498.75;4998327;28;20034;-89
2023/05/02 08:29:32;;;;;;;10.68;6.05;;;;;;;14.17;100.00;151555.13;4998496;28;20035;-88
2023/05/02 08:31:57;;;;;;;8.27;5.43;;;;;;;14.04;100.00;151523.81;4998873;28;20030;-89
2023/05/02 08:34:23;;;;;;;6.25;4.80;;;;;;;14.02;100.00;151517.56;4998362;28;20054;-88
2023/05/02 08:36:49;;;;;;;7.35;5.20;;;;;;;14.04;100.00;151522.56;4998247;28;20027;-88
2023/05/02 08:39:17;;;;;;;6.88;5.15;;;;;;;14.04;100.00;151522.56;4995936;28;20077;-87
2023/05/02 08:41:43;;;;;;;8.82;5.97;;;;;;;14.06;100.00;151528.81;4995646;28;20066;-88
2023/05/02 08:44:11;;;;;;;8.80;5.65;;;;;;;14.32;100.00;151592.69;4998632;28;20043;-89
2023/05/02 08:46:40;;;;;;;6.75;5.10;;;;;;;14.57;100.00;151655.44;4998375;28;20026;-89
2023/05/02 08:49:07;;;;;;;6.22;4.78;;;;;;;15.06;100.00;151777.00;4979948;28;20167;-89
2023/05/02 08:51:35;;;;;;;6.28;4.72;;;;;;;15.42;100.00;151866.00;4998777;28;20039;-89
2023/05/02 08:54:02;;;;;;;6.50;4.55;;;;;;;15.59;100.00;151907.44;4997474;28;20044;-87
2023/05/02 08:56:31;;;;;;;4.93;4.20;;;;;;;15.42;100.00;151866.00;4996537;28;20038;-87
2023/05/02 08:58:57;;;;;;;5.30;4.18;;;;;;;15.42;100.00;151866.00;4993692;28;20053;-87
2023/05/02 09:01:27;;;;;;;6.38;4.05;;;;;;;15.16;100.00;151800.81;4992090;28;20038;-86
2023/05/02 09:03:54;;;;;;;6.00;4.55;;;;;;;15.09;100.00;151783.25;4999173;28;20043;-86
2023/05/02 09:06:21;;;;;;;5.97;4.50;;;;;;;15.10;100.00;151785.78;5005381;28;20065;-90
2023/05/02 09:08:53;;;;;;;5.80;4.70;;;;;;;15.02;100.00;151768.22;5010639;28;20025;-87
2023/05/02 09:11:22;;;;;;;5.15;4.35;;;;;;;15.14;100.00;151795.81;5017962;28;20018;-87
2023/05/02 09:13:50;;;;;;;6.90;4.57;;;;;;;15.25;100.00;151823.38;5015928;28;20021;-85
2023/05/02 09:16:24;;;;;;;7.07;4.80;;;;;;;15.15;100.00;151799.56;5011660;28;20458;-85
2023/05/02 09:18:58;;;;;;;11.45;4.78;;;;;;;15.29;100.00;151833.41;5011483;28;20114;-83
2023/05/02 09:21:42;;;;;;;6.95;4.47;;;;;;;15.38;100.00;151855.97;5001407;28;20049;-87
2023/05/02 09:24:18;;;;;;;5.95;4.55;;;;;;;15.59;100.00;151908.72;4997212;28;20053;-87
2023/05/02 09:26:56;;;;;;;8.63;4.22;;;;;;;15.84;100.00;151970.19;4997194;28;20038;-87
2023/05/02 09:29:27;;;;;;;5.03;3.90;;;;;;;15.83;100.00;151968.94;4999123;28;20046;-90
2023/05/02 09:31:53;;;;;;;4.35;3.67;;;;;;;16.02;100.00;152015.31;4992750;28;20030;-89
2023/05/02 09:34:19;;;;;;;5.25;3.70;;;;;;;15.72;100.00;151941.31;4983459;28;20038;-88
2023/05/02 09:36:49;;;;;;;5.05;3.50;;;;;;;15.77;100.00;151953.88;4987932;28;20078;-87
2023/05/02 09:39:17;;;;;;;4.90;3.67;;;;;;;15.55;100.00;151898.66;4992874;28;20066;-85
2023/05/02 09:41:45;;;;;;;5.55;3.55;;;;;;;15.45;100.00;151873.53;4993701;28;20078;-88
2023/05/02 09:44:13;;;;;;;7.80;3.92;;;;;;;15.26;100.00;151827.16;4992074;28;20042;-87
2023/05/02 09:47:01;;;;;;;6.63;3.83;;;;;;;15.23;100.00;151818.38;4992505;28;20070;-86
2023/05/02 09:49:48;;;;;;;5.53;4.15;;;;;;;15.34;100.00;151845.97;4990316;28;20492;-89
2023/05/02 09:52:23;;;;;;;4.75;3.90;;;;;;;15.21;100.00;151814.59;4986899;28;20019;-89
2023/05/02 09:54:51;;;;;;;6.07;4.50;;;;;;;15.11;100.00;151789.56;4984661;28;20520;-90
2023/05/02 09:57:16;;;;;;;5.97;3.78;;;;;;;15.02;100.00;151766.97;4969001;28;20042;-88
2023/05/02 09:59:56;;;;;;;6.45;3.78;;;;;;;15.08;100.00;151780.78;4994957;28;20105;-89
2023/05/02 10:02:23;;;;;;;8.70;4.22;;;;;;;15.06;100.00;151775.75;5004629;28;20034;-91
2023/05/02 10:04:52;;;;;;;5.32;4.10;;;;;;;15.17;100.00;151804.59;5001602;28;20242;-88
2023/05/02 10:07:19;;;;;;;6.15;4.35;;;;;;;15.20;100.00;151810.84;4999955;28;20112;-89
2023/05/02 10:09:47;;;;;;;7.35;4.00;;;;;;;15.25;100.00;151823.38;4999422;28;20034;-90
2023/05/02 10:12:15;;;;;;;6.53;4.07;;;;;;;15.06;100.00;151775.75;4995917;28;20124;-90
2023/05/02 10:14:48;;;;;;;7.05;4.40;;;;;;;15.04;100.00;151770.75;4967212;28;20077;-89
2023/05/02 10:17:22;;;;;;;5.57;4.32;;;;;;;15.25;100.00;151823.38;5005742;28;20117;-91
2023/05/02 10:20:15;;;;;;;6.55;4.43;;;;;;;15.38;100.00;151857.22;5008619;28;20089;-91
2023/05/02 10:23:04;;;;;;;7.32;4.38;;;;;;;15.39;100.00;151858.50;4995090;28;20042;-89
2023/05/02 10:25:32;;;;;;;5.88;4.25;;;;;;;15.37;100.00;151853.50;4995493;28;20061;-90
2023/05/02 10:27:58;;;;;;;8.35;4.07;;;;;;;15.36;100.00;151852.25;4995149;28;20394;-89
2023/05/02 10:30:25;;;;;;;5.65;4.15;;;;;;;15.25;100.00;151824.63;4995816;28;20041;-91
2023/05/02 10:32:54;;;;;;;6.30;4.25;;;;;;;15.38;100.00;151855.97;5000953;28;20041;-90
2023/05/02 10:35:26;;;;;;;6.10;4.45;;;;;;;15.35;100.00;151848.44;5007970;28;20082;-90
2023/05/02 10:37:52;;;;;;;4.83;3.40;;;;;;;15.35;100.00;151849.72;4991048;28;20042;-89
2023/05/02 10:40:44;;;;;;;8.45;4.93;;;;;;;15.49;100.00;151883.63;5008404;28;20038;-91
2023/05/02 10:43:15;;;;;;;9.30;5.60;;;;;;;15.66;100.00;151926.28;5028753;28;20145;-91
2023/05/02 10:45:44;;;;;;;10.82;5.93;;;;;;;15.64;100.00;151921.28;5014165;28;20042;-92
2023/05/02 10:48:28;;;;;;;20.83;5.85;;;;;;;15.91;100.00;151987.72;4988104;28;20039;-91
2023/05/02 10:51:17;;;;;;;9.32;5.80;;;;;;;15.76;100.00;151951.38;5014458;28;20048;-91
2023/05/02 10:53:49;;;;;;;9.25;5.75;;;;;;;15.84;100.00;151971.41;5014601;28;20090;-88
2023/05/02 10:56:22;;;;;;;10.40;5.25;;;;;;;15.87;100.00;151978.97;5009789;28;20046;-92
2023/05/02 10:58:50;;;;;;;10.00;5.53;;;;;;;15.74;100.00;151946.31;5013239;28;20073;-89
2023/05/02 11:01:25;;;;;;;7.50;6.22;;;;;;;15.74;100.00;151945.09;4980257;28;20046;-91
2023/05/02 11:04:00;;;;;;;8.75;5.43;;;;;;;15.72;100.00;151941.31;5025290;28;20123;-91
2023/05/02 11:06:28;;;;;;;8.43;5.38;;;;;;;15.79;100.00;151958.88;5023854;28;20048;-90
2023/05/02 11:09:14;;;;;;;8.93;5.53;;;;;;;15.71;100.00;151938.78;5013845;28;20482;-92
2023/05/02 11:11:40;;;;;;;8.25;5.47;;;;;;;15.85;100.00;151973.94;5013322;28;20038;-90
2023/05/02 11:14:31;;;;;;;8.32;5.60;;;;;;;15.86;100.00;151976.44;5012169;28;20041;-90
2023/05/02 11:17:00;;;;;;;8.82;5.05;;;;;;;15.87;100.00;151978.97;5007056;28;20038;-89
2023/05/02 11:19:53;;;;;;;6.25;4.28;;;;;;;15.59;100.00;151908.72;5004008;28;20549;-88
2023/05/02 11:22:22;;;;;;;6.38;4.57;;;;;;;15.60;100.00;151911.25;5001420;28;20034;-87
2023/05/02 11:24:49;;;;;;;7.22;4.88;;;;;;;15.61;100.00;151913.72;4998613;28;20038;-88